createdAt,value
2022-08-12T00:02:45.047Z,22.00
2022-08-12T00:05:32.203Z,22.10
2022-08-12T00:08:17.753Z,22.20
2022-08-12T00:11:16.298Z,22.30
2022-08-12T00:14:01.698Z,22.20
2022-08-12T00:16:48.139Z,22.10
2022-08-12T00:19:34.665Z,22.00
2022-08-12T00:22:20.481Z,21.80
2022-08-12T00:25:06.487Z,21.70
2022-08-12T00:27:51.918Z,21.70
2022-08-12T00:30:37.342Z,21.70
2022-08-12T00:33:22.856Z,21.60
2022-08-12T00:36:14.877Z,21.60
2022-08-12T00:39:17.719Z,21.60
2022-08-12T00:42:04.318Z,21.70
2022-08-12T00:44:31.283Z,21.80
2022-08-12T00:47:01.892Z,22.00
2022-08-12T00:49:30.638Z,22.00
2022-08-12T00:52:06.574Z,22.00
2022-08-12T00:54:44.331Z,22.00
2022-08-12T00:57:15.178Z,22.00
2022-08-12T01:00:13.832Z,21.90
2022-08-12T01:02:45.397Z,21.90
2022-08-12T01:05:34.261Z,21.80
2022-08-12T01:08:19.692Z,21.70
2022-08-12T01:11:06.010Z,21.90
2022-08-12T01:13:40.008Z,21.70
2022-08-12T01:16:09.075Z,21.60
2022-08-12T01:18:38.533Z,21.70
2022-08-12T01:21:26.510Z,21.70
2022-08-12T01:24:22.947Z,21.60
2022-08-12T01:26:59.493Z,21.60
2022-08-12T01:29:33.264Z,21.40
2022-08-12T01:32:05.093Z,21.30
2022-08-12T01:34:37.528Z,21.30
2022-08-12T01:37:07.466Z,21.20
2022-08-12T01:40:33.742Z,21.10
2022-08-12T01:42:49.501Z,21.10
2022-08-12T01:45:17.981Z,21.00
2022-08-12T01:48:09.501Z,21.10
2022-08-12T01:50:47.037Z,20.90
2022-08-12T01:53:15.975Z,21.00
2022-08-12T01:55:46.882Z,21.10
2022-08-12T01:58:58.150Z,20.90
2022-08-12T02:01:30.483Z,20.60
2022-08-12T02:04:25.242Z,20.80
2022-08-12T02:07:35.304Z,20.70
2022-08-12T02:11:05.140Z,20.70
2022-08-12T02:13:49.717Z,20.60
2022-08-12T02:16:41.611Z,20.80
2022-08-12T02:19:28.503Z,20.80
2022-08-12T02:22:17.293Z,20.80
2022-08-12T02:24:46.258Z,20.60
2022-08-12T02:27:15.073Z,20.70
2022-08-12T02:29:41.847Z,20.80
2022-08-12T02:32:08.983Z,20.70
2022-08-12T02:34:36.899Z,20.60
2022-08-12T02:37:04.529Z,20.60
2022-08-12T02:39:33.878Z,20.60
2022-08-12T02:42:04.045Z,20.60
2022-08-12T02:44:36.198Z,20.60
2022-08-12T02:47:06.187Z,20.50
2022-08-12T02:49:39.785Z,20.50
2022-08-12T02:52:10.004Z,20.50
2022-08-12T02:54:38.649Z,20.40
2022-08-12T02:57:06.197Z,20.50
2022-08-12T02:59:35.586Z,20.40
2022-08-12T03:02:04.154Z,20.30
2022-08-12T03:04:47.691Z,20.40
2022-08-12T03:07:27.797Z,20.40
2022-08-12T03:10:17.842Z,20.30
2022-08-12T03:12:57.888Z,20.30
2022-08-12T03:15:25.043Z,20.30
2022-08-12T03:18:26.516Z,20.30
2022-08-12T03:20:43.356Z,20.30
2022-08-12T03:23:23.088Z,20.10
2022-08-12T03:25:57.098Z,20.10
2022-08-12T03:28:42.548Z,20.10
2022-08-12T03:31:10.683Z,20.10
2022-08-12T03:33:42.357Z,20.00
2022-08-12T03:36:09.565Z,20.00
2022-08-12T03:38:40.274Z,20.00
2022-08-12T03:41:34.973Z,20.00
2022-08-12T03:44:25.889Z,19.90
2022-08-12T03:47:43.456Z,20.00
2022-08-12T03:50:28.808Z,19.90
2022-08-12T03:53:14.239Z,19.90
2022-08-12T03:55:59.827Z,19.90
2022-08-12T03:58:45.342Z,19.80
2022-08-12T04:01:13.042Z,19.80
2022-08-12T04:03:52.298Z,19.70
2022-08-12T04:06:35.034Z,19.70
2022-08-12T04:09:16.364Z,19.70
2022-08-12T04:12:04.317Z,19.60
2022-08-12T04:14:32.269Z,19.60
2022-08-12T04:16:59.598Z,19.60
2022-08-12T04:19:26.781Z,19.60
2022-08-12T04:22:01.749Z,19.50
2022-08-12T04:24:35.155Z,19.60
2022-08-12T04:27:07.251Z,19.50
2022-08-12T04:30:32.969Z,19.50
2022-08-12T04:32:21.792Z,19.50
2022-08-12T04:34:48.858Z,19.50
2022-08-12T04:37:16.556Z,19.50
2022-08-12T04:39:45.138Z,19.50
2022-08-12T04:42:12.482Z,19.50
2022-08-12T04:44:39.154Z,19.50
2022-08-12T04:47:06.008Z,19.40
2022-08-12T04:49:35.007Z,19.40
2022-08-12T04:52:03.211Z,19.40
2022-08-12T04:54:31.295Z,19.40
2022-08-12T04:57:04.026Z,19.40
2022-08-12T04:59:47.666Z,19.40
2022-08-12T05:02:21.050Z,19.30
2022-08-12T05:04:51.524Z,19.20
2022-08-12T05:07:18.994Z,19.20
2022-08-12T05:09:59.970Z,19.20
2022-08-12T05:12:44.878Z,19.20
2022-08-12T05:15:27.634Z,19.20
2022-08-12T05:17:59.992Z,19.10
2022-08-12T05:20:29.549Z,19.20
2022-08-12T05:23:13.355Z,19.20
2022-08-12T05:25:43.039Z,19.20
2022-08-12T05:28:10.374Z,19.20
2022-08-12T05:30:37.119Z,19.30
2022-08-12T05:33:05.367Z,19.30
2022-08-12T05:35:36.865Z,19.20
2022-08-12T05:38:22.750Z,19.20
2022-08-12T05:40:51.030Z,19.30
2022-08-12T05:43:18.089Z,19.30
2022-08-12T05:45:45.922Z,19.30
2022-08-12T05:48:13.445Z,19.40
2022-08-12T05:50:41.426Z,19.50
2022-08-12T05:53:08.410Z,19.50
2022-08-12T05:55:36.372Z,19.60
2022-08-12T05:58:04.860Z,19.60
2022-08-12T06:00:32.277Z,19.70
2022-08-12T06:03:02.387Z,19.70
2022-08-12T06:05:34.408Z,19.90
2022-08-12T06:08:21.079Z,20.00
2022-08-12T06:10:50.115Z,20.20
2022-08-12T06:13:27.945Z,20.30
2022-08-12T06:16:05.039Z,20.50
2022-08-12T06:18:31.828Z,20.50
2022-08-12T06:21:01.754Z,20.80
2022-08-12T06:23:30.130Z,21.00
2022-08-12T06:25:57.910Z,21.20
2022-08-12T06:28:25.223Z,21.30
2022-08-12T06:31:22.068Z,21.60
2022-08-12T06:34:00.146Z,21.80
2022-08-12T06:36:33.534Z,21.90
2022-08-12T06:39:01.035Z,22.00
2022-08-12T06:42:25.300Z,22.20
2022-08-12T06:44:33.216Z,22.20
2022-08-12T06:47:00.714Z,22.30
2022-08-12T06:49:28.392Z,22.30
2022-08-12T06:51:56.758Z,22.60
2022-08-12T06:54:31.296Z,22.80
2022-08-12T06:57:05.213Z,22.70
2022-08-12T06:59:46.874Z,23.00
2022-08-12T07:02:13.689Z,23.20
2022-08-12T07:04:40.608Z,23.40
2022-08-12T07:07:10.895Z,23.40
2022-08-12T07:10:04.901Z,23.40
2022-08-12T07:12:29.948Z,23.50
2022-08-12T07:14:58.386Z,23.60
2022-08-12T07:17:25.971Z,23.80
2022-08-12T07:19:53.770Z,23.90
2022-08-12T07:22:23.108Z,24.10
2022-08-12T07:25:09.881Z,23.90
2022-08-12T07:27:43.364Z,24.30
2022-08-12T07:30:10.802Z,24.50
2022-08-12T07:32:37.521Z,24.70
2022-08-12T07:35:04.613Z,24.70
2022-08-12T07:37:31.517Z,24.90
2022-08-12T07:40:00.613Z,25.10
2022-08-12T07:42:28.267Z,24.90
2022-08-12T07:44:55.783Z,24.70
2022-08-12T07:47:23.011Z,24.90
2022-08-12T07:50:03.704Z,25.10
2022-08-12T07:52:46.913Z,25.20
2022-08-12T07:55:16.023Z,25.20
2022-08-12T07:57:59.236Z,25.40
2022-08-12T08:00:27.492Z,25.80
2022-08-12T08:02:54.661Z,25.60
2022-08-12T08:05:26.788Z,25.50
2022-08-12T08:08:01.705Z,25.70
2022-08-12T08:10:30.316Z,25.90
2022-08-12T08:12:58.917Z,25.70
2022-08-12T08:16:01.376Z,25.80
2022-08-12T08:18:26.197Z,25.70
2022-08-12T08:20:55.231Z,25.90
2022-08-12T08:23:22.016Z,25.70
2022-08-12T08:25:56.386Z,26.30
2022-08-12T08:28:23.090Z,26.60
2022-08-12T08:30:50.531Z,26.40
2022-08-12T08:33:23.580Z,26.70
2022-08-12T08:36:06.714Z,26.50
2022-08-12T08:38:41.736Z,26.40
2022-08-12T08:42:19.272Z,26.60
2022-08-12T08:44:29.988Z,26.80
2022-08-12T08:46:56.884Z,27.00
2022-08-12T08:49:23.822Z,26.90
2022-08-12T08:51:51.030Z,27.10
2022-08-12T08:54:17.787Z,27.10
2022-08-12T08:56:46.215Z,27.40
2022-08-12T08:59:13.760Z,27.10
2022-08-12T09:01:41.123Z,27.30
2022-08-12T09:05:08.692Z,27.30
2022-08-12T09:07:00.679Z,27.50
2022-08-12T09:10:02.842Z,27.40
2022-08-12T09:12:54.284Z,27.60
2022-08-12T09:15:35.268Z,27.30
2022-08-12T09:18:08.514Z,27.30
2022-08-12T09:20:36.727Z,27.50
2022-08-12T09:23:58.947Z,27.30
2022-08-12T09:25:58.218Z,27.40
2022-08-12T09:28:31.881Z,27.70
2022-08-12T09:31:00.091Z,28.00
2022-08-12T09:34:25.242Z,28.00
2022-08-12T09:36:31.466Z,27.90
2022-08-12T09:40:05.580Z,28.20
2022-08-12T09:42:38.693Z,28.30
2022-08-12T09:46:05.477Z,28.40
2022-08-12T09:48:10.156Z,28.00
2022-08-12T09:50:51.790Z,28.00
2022-08-12T09:53:36.109Z,28.00
2022-08-12T09:56:59.310Z,28.50
2022-08-12T09:59:00.599Z,28.70
2022-08-12T10:01:35.739Z,28.40
2022-08-12T10:04:19.567Z,28.40
2022-08-12T10:06:54.441Z,28.70
2022-08-12T10:09:57.532Z,28.70
2022-08-12T10:12:31.326Z,28.00
2022-08-12T10:15:01.299Z,28.20
2022-08-12T10:17:28.071Z,28.50
2022-08-12T10:19:54.765Z,28.90
2022-08-12T10:22:36.896Z,29.40
2022-08-12T10:26:35.789Z,29.10
2022-08-12T10:28:33.464Z,28.90
2022-08-12T10:31:01.217Z,28.60
2022-08-12T10:33:30.917Z,28.90
2022-08-12T10:35:59.906Z,29.10
2022-08-12T10:38:38.140Z,28.90
2022-08-12T10:41:57.743Z,29.20
2022-08-12T10:44:16.963Z,29.20
2022-08-12T10:46:45.995Z,29.20
2022-08-12T10:50:04.869Z,28.60
2022-08-12T10:52:33.881Z,29.00
2022-08-12T10:54:57.537Z,29.20
2022-08-12T10:58:14.891Z,28.80
2022-08-12T11:00:30.332Z,28.90
2022-08-12T11:04:35.590Z,28.90
2022-08-12T11:07:08.365Z,29.40
2022-08-12T11:08:43.379Z,29.30
2022-08-12T11:11:16.692Z,29.30
2022-08-12T11:13:49.094Z,29.30
2022-08-12T11:16:23.037Z,29.10
2022-08-12T11:18:54.641Z,29.00
2022-08-12T11:21:22.772Z,29.20
2022-08-12T11:24:30.791Z,28.80
2022-08-12T11:29:25.968Z,28.00
2022-08-12T11:31:58.433Z,28.40
2022-08-12T11:34:53.781Z,28.70
2022-08-12T11:37:25.377Z,28.80
2022-08-12T11:42:46.008Z,29.20
2022-08-12T11:45:16.393Z,29.10
2022-08-12T11:47:44.048Z,29.20
2022-08-12T11:50:11.866Z,29.20
2022-08-12T11:52:55.493Z,29.20
2022-08-12T11:55:29.741Z,29.20
2022-08-12T11:58:19.777Z,29.40
2022-08-12T12:03:43.683Z,29.50
2022-08-12T12:06:17.790Z,29.40
2022-08-12T12:08:50.069Z,29.20
2022-08-12T12:11:18.359Z,29.40
2022-08-12T12:14:07.521Z,29.20
2022-08-12T12:16:33.299Z,29.50
2022-08-12T12:19:00.409Z,29.70
2022-08-12T12:21:47.323Z,29.60
2022-08-12T12:24:13.847Z,29.40
2022-08-12T12:27:00.238Z,29.20
2022-08-12T12:30:19.471Z,28.90
2022-08-12T12:32:16.205Z,28.80
2022-08-12T12:36:05.463Z,29.10
2022-08-12T12:38:03.558Z,29.40
2022-08-12T12:40:16.336Z,29.90
2022-08-12T12:42:57.660Z,30.00
2022-08-12T12:45:27.939Z,29.60
2022-08-12T12:48:07.684Z,29.50
2022-08-12T12:50:45.080Z,29.40
2022-08-12T12:54:08.161Z,29.30
2022-08-12T12:56:13.452Z,29.50
2022-08-12T12:58:40.201Z,29.70
2022-08-12T13:01:25.206Z,29.80
2022-08-12T13:03:56.420Z,29.90
2022-08-12T13:06:31.529Z,30.10
2022-08-12T13:09:03.488Z,29.70
2022-08-12T13:11:41.743Z,29.80
2022-08-12T13:14:27.905Z,30.10
2022-08-12T13:17:02.475Z,29.70
2022-08-12T13:19:43.429Z,29.30
2022-08-12T13:22:18.505Z,29.60
2022-08-12T13:24:55.020Z,29.10
2022-08-12T13:27:35.225Z,29.00
2022-08-12T13:30:07.024Z,29.10
2022-08-12T13:32:38.077Z,29.20
2022-08-12T13:35:20.069Z,29.40
2022-08-12T13:37:55.676Z,29.40
2022-08-12T13:40:26.555Z,29.30
2022-08-12T13:42:57.780Z,29.30
2022-08-12T13:45:26.430Z,29.50
2022-08-12T13:48:01.784Z,29.50
2022-08-12T13:50:37.427Z,29.20
2022-08-12T13:53:23.854Z,29.30
2022-08-12T13:55:59.456Z,29.50
2022-08-12T13:58:30.204Z,29.40
2022-08-12T14:00:58.263Z,29.40
2022-08-12T14:03:28.071Z,29.60
2022-08-12T14:06:15.163Z,29.70
2022-08-12T14:08:43.119Z,29.70
2022-08-12T14:11:12.459Z,29.40
2022-08-12T14:14:04.206Z,29.80
2022-08-12T14:16:38.015Z,29.90
2022-08-12T14:19:24.143Z,29.70
2022-08-12T14:22:00.793Z,29.60
2022-08-12T14:24:35.368Z,29.70
2022-08-12T14:27:03.704Z,29.50
2022-08-12T14:29:56.014Z,29.00
2022-08-12T14:32:22.349Z,28.90
2022-08-12T14:34:51.504Z,29.00
2022-08-12T14:37:57.279Z,28.80
2022-08-12T14:40:06.932Z,28.90
2022-08-12T14:42:33.648Z,29.50
2022-08-12T14:45:02.158Z,29.50
2022-08-12T14:47:35.385Z,29.50
2022-08-12T14:50:37.679Z,29.60
2022-08-12T14:58:32.039Z,29.40
2022-08-12T15:01:21.327Z,29.10
2022-08-12T15:03:58.033Z,28.80
2022-08-12T15:06:44.184Z,28.70
2022-08-12T15:09:13.967Z,28.50
2022-08-12T15:11:55.106Z,28.60
2022-08-12T15:14:25.515Z,28.70
2022-08-12T15:16:53.172Z,28.60
2022-08-12T15:20:11.648Z,28.60
2022-08-12T15:22:38.835Z,28.60
2022-08-12T15:24:54.091Z,28.70
2022-08-12T15:27:22.389Z,29.00
2022-08-12T15:29:58.472Z,29.10
2022-08-12T15:32:32.247Z,29.00
2022-08-12T15:35:00.540Z,29.10
2022-08-12T15:38:08.867Z,29.40
2022-08-12T15:40:14.519Z,29.30
2022-08-12T15:42:51.049Z,29.30
2022-08-12T15:45:23.536Z,29.40
2022-08-12T15:47:53.202Z,29.50
2022-08-12T15:50:32.052Z,29.60
2022-08-12T15:53:14.471Z,29.50
2022-08-12T15:55:46.298Z,29.40
2022-08-12T15:58:16.629Z,29.10
2022-08-12T16:00:43.793Z,29.10
2022-08-12T16:03:14.285Z,29.10
2022-08-12T16:06:12.798Z,29.00
2022-08-12T16:08:40.705Z,29.10
2022-08-12T16:11:14.951Z,29.20
2022-08-12T16:13:44.202Z,29.10
2022-08-12T16:16:22.602Z,29.40
2022-08-12T16:18:58.644Z,29.50
2022-08-12T16:21:51.327Z,29.30
2022-08-12T16:24:14.645Z,29.20
2022-08-12T16:26:41.442Z,29.00
2022-08-12T16:29:16.007Z,28.70
2022-08-12T16:31:44.372Z,28.60
2022-08-12T16:34:26.169Z,28.50
2022-08-12T16:37:09.431Z,28.40
2022-08-12T16:40:01.320Z,28.30
2022-08-12T16:42:27.730Z,28.30
2022-08-12T16:45:01.876Z,28.30
2022-08-12T16:47:57.647Z,28.40
2022-08-12T16:50:19.370Z,28.40
2022-08-12T16:52:50.920Z,28.00
2022-08-12T16:55:18.829Z,28.10
2022-08-12T16:57:48.587Z,28.00
2022-08-12T17:00:17.575Z,28.00
2022-08-12T17:02:54.856Z,28.00
2022-08-12T17:05:25.144Z,28.00
2022-08-12T17:08:00.288Z,28.10
2022-08-12T17:10:36.971Z,28.10
2022-08-12T17:13:10.123Z,27.80
2022-08-12T17:15:56.941Z,27.80
2022-08-12T17:18:43.743Z,27.90
2022-08-12T17:21:19.568Z,27.80
2022-08-12T17:23:53.161Z,28.00
2022-08-12T17:26:28.368Z,27.90
2022-08-12T17:28:59.596Z,28.10
2022-08-12T17:32:00.628Z,27.80
2022-08-12T17:34:35.742Z,27.90
2022-08-12T17:37:06.277Z,27.80
2022-08-12T17:40:12.027Z,27.70
2022-08-12T17:42:34.235Z,27.70
2022-08-12T17:45:01.976Z,27.60
2022-08-12T17:48:04.622Z,27.80
2022-08-12T17:50:34.383Z,27.80
2022-08-12T17:53:02.892Z,27.60
2022-08-12T17:55:43.619Z,27.70
2022-08-12T17:58:37.461Z,27.60
2022-08-12T18:01:11.152Z,27.80
2022-08-12T18:04:04.323Z,27.60
2022-08-12T18:06:28.573Z,27.60
2022-08-12T18:08:56.743Z,27.40
2022-08-12T18:12:04.750Z,27.50
2022-08-12T18:14:32.071Z,27.50
2022-08-12T18:17:01.069Z,27.30
2022-08-12T18:20:03.804Z,27.30
2022-08-12T18:22:22.104Z,27.30
2022-08-12T18:25:02.421Z,27.20
2022-08-12T18:27:46.744Z,27.10
2022-08-12T18:30:20.993Z,27.10
2022-08-12T18:33:04.939Z,27.20
2022-08-12T18:35:47.419Z,27.20
2022-08-12T18:38:22.237Z,27.10
2022-08-12T18:41:10.005Z,27.10
2022-08-12T18:43:57.548Z,27.00
2022-08-12T18:46:32.694Z,26.90
2022-08-12T18:49:16.603Z,26.90
2022-08-12T18:51:55.635Z,26.90
2022-08-12T18:54:34.881Z,26.80
2022-08-12T18:57:16.267Z,26.80
2022-08-12T19:00:01.209Z,26.70
2022-08-12T19:02:32.992Z,26.60
2022-08-12T19:05:09.953Z,26.40
2022-08-12T19:07:49.367Z,25.70
2022-08-12T19:10:27.560Z,25.80
2022-08-12T19:13:23.748Z,25.70
2022-08-12T19:15:57.479Z,25.50
2022-08-12T19:18:30.025Z,25.50
2022-08-12T19:20:59.041Z,25.40
2022-08-12T19:23:33.883Z,25.40
2022-08-12T19:26:10.543Z,25.30
2022-08-12T19:28:38.522Z,25.30
2022-08-12T19:31:45.335Z,25.10
2022-08-12T19:37:38.438Z,25.20
2022-08-12T19:40:20.546Z,25.10
2022-08-12T19:43:01.454Z,25.20
2022-08-12T19:45:43.251Z,25.10
2022-08-12T19:48:20.897Z,25.20
2022-08-12T19:50:52.676Z,25.10
2022-08-12T19:53:22.799Z,25.10
2022-08-12T19:55:55.094Z,25.20
2022-08-12T19:58:23.549Z,25.00
2022-08-12T20:00:53.669Z,24.80
2022-08-12T20:03:38.879Z,24.70
2022-08-12T20:06:15.293Z,24.90
2022-08-12T20:08:47.782Z,24.60
2022-08-12T20:12:09.617Z,24.40
2022-08-12T20:14:05.006Z,24.50
2022-08-12T20:19:52.862Z,24.20
2022-08-12T20:22:24.584Z,24.00
2022-08-12T20:25:07.276Z,24.10
2022-08-12T20:28:04.060Z,24.10
2022-08-12T20:30:35.084Z,24.00
2022-08-12T20:33:18.506Z,24.10
2022-08-12T20:36:06.422Z,24.00
2022-08-12T20:38:37.241Z,24.10
2022-08-12T20:41:14.782Z,24.00
2022-08-12T20:43:44.569Z,24.00
2022-08-12T20:46:13.474Z,23.90
2022-08-12T20:48:44.041Z,24.00
2022-08-12T20:51:19.274Z,23.80
2022-08-12T20:53:53.862Z,23.70
2022-08-12T20:56:34.224Z,23.80
2022-08-12T20:59:09.506Z,23.80
2022-08-12T21:01:46.389Z,23.80
2022-08-12T21:04:35.693Z,23.60
2022-08-12T21:07:09.371Z,23.80
2022-08-12T21:09:41.091Z,23.80
2022-08-12T21:12:31.595Z,23.70
2022-08-12T21:15:17.105Z,23.70
2022-08-12T21:18:00.912Z,24.00
2022-08-12T21:20:34.752Z,24.00
2022-08-12T21:23:05.727Z,24.00
2022-08-12T21:25:36.310Z,24.00
2022-08-12T21:28:12.760Z,23.90
2022-08-12T21:30:54.876Z,23.70
2022-08-12T21:33:31.375Z,23.70
2022-08-12T21:36:00.930Z,23.70
2022-08-12T21:38:34.762Z,23.60
2022-08-12T21:41:09.057Z,23.50
2022-08-12T21:43:45.247Z,23.40
2022-08-12T21:46:33.786Z,23.20
2022-08-12T21:49:04.806Z,23.10
2022-08-12T21:51:49.946Z,23.10
2022-08-12T21:54:22.552Z,23.00
2022-08-12T21:56:52.927Z,23.10
2022-08-12T21:59:21.770Z,23.00
2022-08-12T22:01:49.601Z,22.70
2022-08-12T22:04:36.879Z,22.70
2022-08-12T22:07:06.127Z,22.50
2022-08-12T22:09:43.214Z,22.60
2022-08-12T22:12:29.468Z,22.70
2022-08-12T22:14:56.309Z,22.70
2022-08-12T22:17:49.529Z,22.60
2022-08-12T22:20:17.895Z,22.70
2022-08-12T22:22:56.445Z,22.50
2022-08-12T22:25:27.728Z,22.50
2022-08-12T22:28:13.048Z,22.30
2022-08-12T22:30:59.414Z,22.30
2022-08-12T22:33:26.162Z,22.30
2022-08-12T22:35:59.438Z,22.10
2022-08-12T22:38:29.061Z,22.10
2022-08-12T22:41:01.730Z,22.20
2022-08-12T22:44:05.902Z,22.20
2022-08-12T22:46:32.908Z,22.20
2022-08-12T22:48:59.717Z,22.20
2022-08-12T22:51:26.790Z,22.30
2022-08-12T22:53:55.896Z,22.30
2022-08-12T22:56:30.975Z,22.40
2022-08-12T22:59:02.907Z,22.50
2022-08-12T23:01:52.513Z,22.40
2022-08-12T23:04:28.746Z,22.30
2022-08-12T23:07:05.383Z,22.30
2022-08-12T23:09:48.201Z,22.20
2022-08-12T23:12:40.788Z,22.10
2022-08-12T23:15:13.062Z,22.10
2022-08-12T23:17:41.029Z,22.20
2022-08-12T23:20:11.280Z,22.10
2022-08-12T23:22:40.272Z,22.10
2022-08-12T23:25:20.936Z,22.20
2022-08-12T23:28:29.841Z,22.20
2022-08-12T23:30:58.734Z,22.10
2022-08-12T23:34:00.754Z,22.10
2022-08-12T23:36:31.850Z,22.10
2022-08-12T23:40:06.689Z,22.10
2022-08-12T23:42:17.593Z,22.10
2022-08-12T23:44:44.317Z,22.00
2022-08-12T23:47:12.531Z,22.00
2022-08-12T23:49:58.158Z,22.00
2022-08-12T23:52:33.875Z,21.90
2022-08-12T23:55:23.160Z,21.80
2022-08-12T23:58:18.239Z,21.80
